Tyler, Minnesota
Current Conditions -  °F | °C
As of 4:55 AM on Wednesday 22 Oct 2014 (Local Time) from KMML Reporting Station
Overcast Overcast  
Wind Chill: 52°   Ceiling: 6500
Heat Index: 52°   Visibility: 10mi
Dew Point: 39°   Wind: 21mph
Humidity: 62%   Direction: 170°S
Pressure: 30.02"   Gusts: 28mph
Location:  44.28°N, 96.13°W
Report Text: KMML 220955Z AUTO 17018G24KT 10SM BKN065 OVC080 11/04 A3002 RMK AO1
Loading
Personal Weather Stations






























Interactive Weather Map
Tropical Storm Tracking
New forecast layout! Learn more

10-Day Weather Forecast

Advertisements
Track Severe Weather on mobile